sensor_id;sensor_type;location;lat;lon;timestamp;temperature;humidity
9980;DHT22;5030;51.532;6.766;2023-04-03T00:01:04;-0.30;99.90
9980;DHT22;5030;51.532;6.766;2023-04-03T00:03:30;-0.20;99.90
9980;DHT22;5030;51.532;6.766;2023-04-03T00:05:56;-0.20;99.90
9980;DHT22;5030;51.532;6.766;2023-04-03T00:08:21;0.00;99.90
9980;DHT22;5030;51.532;6.766;2023-04-03T00:10:48;0.00;99.90
9980;DHT22;5030;51.532;6.766;2023-04-03T00:13:14;0.00;99.90
9980;DHT22;5030;51.532;6.766;2023-04-03T00:15:40;-0.10;99.90
9980;DHT22;5030;51.532;6.766;2023-04-03T00:18:06;-0.10;99.90
9980;DHT22;5030;51.532;6.766;2023-04-03T00:20:33;-0.20;99.90
9980;DHT22;5030;51.532;6.766;2023-04-03T00:22:59;-0.10;99.90
9980;DHT22;5030;51.532;6.766;2023-04-03T00:25:25;0.00;99.90
9980;DHT22;5030;51.532;6.766;2023-04-03T00:27:51;0.00;99.90
9980;DHT22;5030;51.532;6.766;2023-04-03T00:30:18;0.00;99.90
9980;DHT22;5030;51.532;6.766;2023-04-03T00:32:44;0.10;99.90
9980;DHT22;5030;51.532;6.766;2023-04-03T00:35:11;0.10;99.90
9980;DHT22;5030;51.532;6.766;2023-04-03T00:37:36;0.00;99.90
9980;DHT22;5030;51.532;6.766;2023-04-03T00:40:03;0.00;99.90
9980;DHT22;5030;51.532;6.766;2023-04-03T00:42:29;0.00;99.90
9980;DHT22;5030;51.532;6.766;2023-04-03T00:47:21;-0.50;99.90
9980;DHT22;5030;51.532;6.766;2023-04-03T00:49:48;-0.40;99.90
9980;DHT22;5030;51.532;6.766;2023-04-03T00:52:19;-0.40;99.90
9980;DHT22;5030;51.532;6.766;2023-04-03T00:54:47;-0.50;99.90
9980;DHT22;5030;51.532;6.766;2023-04-03T00:57:14;-0.50;99.90
9980;DHT22;5030;51.532;6.766;2023-04-03T00:59:44;-0.50;99.90
9980;DHT22;5030;51.532;6.766;2023-04-03T01:02:11;-0.60;99.90
9980;DHT22;5030;51.532;6.766;2023-04-03T01:04:39;-0.70;99.90
9980;DHT22;5030;51.532;6.766;2023-04-03T01:07:10;-0.60;99.90
9980;DHT22;5030;51.532;6.766;2023-04-03T01:09:36;-0.70;99.90
9980;DHT22;5030;51.532;6.766;2023-04-03T01:12:22;-0.50;99.90
9980;DHT22;5030;51.532;6.766;2023-04-03T01:14:53;-0.50;99.90
9980;DHT22;5030;51.532;6.766;2023-04-03T01:17:35;-0.60;99.90
9980;DHT22;5030;51.532;6.766;2023-04-03T01:25:43;-0.50;99.90
9980;DHT22;5030;51.532;6.766;2023-04-03T01:28:15;-0.60;99.90
9980;DHT22;5030;51.532;6.766;2023-04-03T01:30:48;-0.50;99.90
9980;DHT22;5030;51.532;6.766;2023-04-03T01:33:15;-0.60;99.90
9980;DHT22;5030;51.532;6.766;2023-04-03T01:35:41;-0.60;99.90
9980;DHT22;5030;51.532;6.766;2023-04-03T01:38:07;-0.60;99.90
9980;DHT22;5030;51.532;6.766;2023-04-03T01:40:32;-0.60;99.90
9980;DHT22;5030;51.532;6.766;2023-04-03T01:42:58;-0.70;99.90
9980;DHT22;5030;51.532;6.766;2023-04-03T01:45:24;-0.80;99.90
9980;DHT22;5030;51.532;6.766;2023-04-03T01:47:49;-0.80;99.90
9980;DHT22;5030;51.532;6.766;2023-04-03T01:50:15;-0.80;99.90
9980;DHT22;5030;51.532;6.766;2023-04-03T01:52:41;-0.60;99.90
9980;DHT22;5030;51.532;6.766;2023-04-03T01:55:07;-0.70;99.90
9980;DHT22;5030;51.532;6.766;2023-04-03T02:00:08;-0.70;99.90
9980;DHT22;5030;51.532;6.766;2023-04-03T02:02:34;-0.70;99.90
9980;DHT22;5030;51.532;6.766;2023-04-03T02:05:00;-0.70;99.90
9980;DHT22;5030;51.532;6.766;2023-04-03T02:07:26;-0.80;99.90
9980;DHT22;5030;51.532;6.766;2023-04-03T02:09:52;-0.80;99.90
9980;DHT22;5030;51.532;6.766;2023-04-03T02:12:18;-0.80;99.90
9980;DHT22;5030;51.532;6.766;2023-04-03T02:14:43;-0.80;99.90
9980;DHT22;5030;51.532;6.766;2023-04-03T02:17:09;-0.60;99.90
9980;DHT22;5030;51.532;6.766;2023-04-03T02:19:35;-0.80;99.90
9980;DHT22;5030;51.532;6.766;2023-04-03T02:22:02;-0.70;99.90
9980;DHT22;5030;51.532;6.766;2023-04-03T02:24:28;-0.60;99.90
9980;DHT22;5030;51.532;6.766;2023-04-03T02:26:54;-0.80;99.90
9980;DHT22;5030;51.532;6.766;2023-04-03T02:29:19;-0.80;99.90
9980;DHT22;5030;51.532;6.766;2023-04-03T02:31:45;-0.80;99.90
9980;DHT22;5030;51.532;6.766;2023-04-03T02:34:11;-0.70;99.90
9980;DHT22;5030;51.532;6.766;2023-04-03T02:36:37;-0.80;99.90
9980;DHT22;5030;51.532;6.766;2023-04-03T02:39:03;-0.80;99.90
9980;DHT22;5030;51.532;6.766;2023-04-03T02:41:29;-0.80;99.90
9980;DHT22;5030;51.532;6.766;2023-04-03T02:44:03;-0.90;99.90
9980;DHT22;5030;51.532;6.766;2023-04-03T02:46:30;-0.80;99.90
9980;DHT22;5030;51.532;6.766;2023-04-03T02:48:56;-0.70;99.90
9980;DHT22;5030;51.532;6.766;2023-04-03T02:51:21;-0.80;99.90
9980;DHT22;5030;51.532;6.766;2023-04-03T02:53:48;-0.90;99.90
9980;DHT22;5030;51.532;6.766;2023-04-03T02:56:14;-0.80;99.90
9980;DHT22;5030;51.532;6.766;2023-04-03T02:58:40;-0.90;99.90
9980;DHT22;5030;51.532;6.766;2023-04-03T03:01:06;-0.90;99.90
9980;DHT22;5030;51.532;6.766;2023-04-03T03:03:31;-0.90;99.90
9980;DHT22;5030;51.532;6.766;2023-04-03T03:06:08;-0.90;99.90
9980;DHT22;5030;51.532;6.766;2023-04-03T03:08:35;-1.00;99.90
9980;DHT22;5030;51.532;6.766;2023-04-03T03:11:01;-1.00;99.90
9980;DHT22;5030;51.532;6.766;2023-04-03T03:13:27;-1.10;99.90
9980;DHT22;5030;51.532;6.766;2023-04-03T03:15:53;-1.10;99.90
9980;DHT22;5030;51.532;6.766;2023-04-03T03:18:19;-1.00;99.90
9980;DHT22;5030;51.532;6.766;2023-04-03T03:20:45;-1.10;99.90
9980;DHT22;5030;51.532;6.766;2023-04-03T03:23:10;-0.90;99.90
9980;DHT22;5030;51.532;6.766;2023-04-03T03:25:40;-0.80;99.90
9980;DHT22;5030;51.532;6.766;2023-04-03T03:28:06;-0.60;99.90
9980;DHT22;5030;51.532;6.766;2023-04-03T03:30:32;-0.70;99.90
9980;DHT22;5030;51.532;6.766;2023-04-03T03:32:58;-0.70;99.90
9980;DHT22;5030;51.532;6.766;2023-04-03T03:35:23;-0.80;99.90
9980;DHT22;5030;51.532;6.766;2023-04-03T03:37:49;-0.90;99.90
9980;DHT22;5030;51.532;6.766;2023-04-03T03:40:15;-0.90;99.90
9980;DHT22;5030;51.532;6.766;2023-04-03T03:42:40;-1.00;99.90
9980;DHT22;5030;51.532;6.766;2023-04-03T03:45:08;-1.00;99.90
9980;DHT22;5030;51.532;6.766;2023-04-03T03:47:33;-1.00;99.90
9980;DHT22;5030;51.532;6.766;2023-04-03T03:49:59;-1.00;99.90
9980;DHT22;5030;51.532;6.766;2023-04-03T03:52:25;-1.10;99.90
9980;DHT22;5030;51.532;6.766;2023-04-03T03:54:51;-1.00;99.90
9980;DHT22;5030;51.532;6.766;2023-04-03T03:57:17;-0.90;99.90
9980;DHT22;5030;51.532;6.766;2023-04-03T03:59:43;-0.70;99.90
9980;DHT22;5030;51.532;6.766;2023-04-03T04:02:10;-0.70;99.90
9980;DHT22;5030;51.532;6.766;2023-04-03T04:04:36;-0.40;99.90
9980;DHT22;5030;51.532;6.766;2023-04-03T04:07:03;-0.30;99.90
9980;DHT22;5030;51.532;6.766;2023-04-03T04:09:28;-0.20;99.90
9980;DHT22;5030;51.532;6.766;2023-04-03T04:11:54;-0.20;99.90
9980;DHT22;5030;51.532;6.766;2023-04-03T04:14:20;-0.20;99.90
9980;DHT22;5030;51.532;6.766;2023-04-03T04:16:46;-0.20;99.90
9980;DHT22;5030;51.532;6.766;2023-04-03T04:19:13;-0.20;99.90
9980;DHT22;5030;51.532;6.766;2023-04-03T04:21:38;-0.20;99.90
9980;DHT22;5030;51.532;6.766;2023-04-03T04:24:05;-0.10;99.90
9980;DHT22;5030;51.532;6.766;2023-04-03T04:26:31;-0.10;99.90
9980;DHT22;5030;51.532;6.766;2023-04-03T04:28:57;-0.10;99.90
9980;DHT22;5030;51.532;6.766;2023-04-03T04:31:22;-0.10;99.90
9980;DHT22;5030;51.532;6.766;2023-04-03T04:33:48;0.00;99.90
9980;DHT22;5030;51.532;6.766;2023-04-03T04:36:13;0.00;99.90
9980;DHT22;5030;51.532;6.766;2023-04-03T04:38:40;0.00;99.90
9980;DHT22;5030;51.532;6.766;2023-04-03T04:41:06;-0.10;99.90
9980;DHT22;5030;51.532;6.766;2023-04-03T04:43:32;-0.10;99.90
9980;DHT22;5030;51.532;6.766;2023-04-03T04:46:05;-0.20;99.90
9980;DHT22;5030;51.532;6.766;2023-04-03T04:48:31;-0.10;99.90
9980;DHT22;5030;51.532;6.766;2023-04-03T04:50:57;-0.20;99.90
9980;DHT22;5030;51.532;6.766;2023-04-03T04:53:22;-0.20;99.90
9980;DHT22;5030;51.532;6.766;2023-04-03T04:55:48;-0.30;99.90
9980;DHT22;5030;51.532;6.766;2023-04-03T04:58:14;-0.30;99.90
9980;DHT22;5030;51.532;6.766;2023-04-03T05:00:40;-0.30;99.90
9980;DHT22;5030;51.532;6.766;2023-04-03T05:03:05;-0.20;99.90
9980;DHT22;5030;51.532;6.766;2023-04-03T05:05:31;-0.20;99.90
9980;DHT22;5030;51.532;6.766;2023-04-03T05:07:56;-0.30;99.90
9980;DHT22;5030;51.532;6.766;2023-04-03T05:10:22;-0.30;99.90
9980;DHT22;5030;51.532;6.766;2023-04-03T05:12:48;-0.20;99.90
9980;DHT22;5030;51.532;6.766;2023-04-03T05:15:14;-0.20;99.90
9980;DHT22;5030;51.532;6.766;2023-04-03T05:17:39;-0.20;99.90
9980;DHT22;5030;51.532;6.766;2023-04-03T05:20:05;-0.30;99.90
9980;DHT22;5030;51.532;6.766;2023-04-03T05:22:32;-0.40;99.90
9980;DHT22;5030;51.532;6.766;2023-04-03T05:24:58;-0.20;99.90
9980;DHT22;5030;51.532;6.766;2023-04-03T05:27:25;-0.20;99.90
9980;DHT22;5030;51.532;6.766;2023-04-03T05:29:53;-0.10;99.90
9980;DHT22;5030;51.532;6.766;2023-04-03T05:32:19;-0.20;99.90
9980;DHT22;5030;51.532;6.766;2023-04-03T05:34:45;-0.20;99.90
9980;DHT22;5030;51.532;6.766;2023-04-03T05:37:11;-0.20;99.90
9980;DHT22;5030;51.532;6.766;2023-04-03T05:39:37;-0.10;99.90
9980;DHT22;5030;51.532;6.766;2023-04-03T05:42:06;-0.20;99.90
9980;DHT22;5030;51.532;6.766;2023-04-03T05:44:31;-0.10;99.90
9980;DHT22;5030;51.532;6.766;2023-04-03T05:46:57;0.00;99.90
9980;DHT22;5030;51.532;6.766;2023-04-03T05:49:23;0.10;99.90
9980;DHT22;5030;51.532;6.766;2023-04-03T05:51:48;0.10;99.90
9980;DHT22;5030;51.532;6.766;2023-04-03T05:54:23;0.10;99.90
9980;DHT22;5030;51.532;6.766;2023-04-03T05:56:50;0.20;99.90
9980;DHT22;5030;51.532;6.766;2023-04-03T05:59:17;0.20;99.90
9980;DHT22;5030;51.532;6.766;2023-04-03T06:01:43;0.30;99.90
9980;DHT22;5030;51.532;6.766;2023-04-03T06:04:09;0.40;99.90
9980;DHT22;5030;51.532;6.766;2023-04-03T06:06:45;0.40;99.90
9980;DHT22;5030;51.532;6.766;2023-04-03T06:09:11;0.60;99.90
9980;DHT22;5030;51.532;6.766;2023-04-03T06:11:37;0.70;99.90
9980;DHT22;5030;51.532;6.766;2023-04-03T06:14:03;0.70;99.90
9980;DHT22;5030;51.532;6.766;2023-04-03T06:16:28;0.90;99.90
9980;DHT22;5030;51.532;6.766;2023-04-03T06:18:54;0.90;99.90
9980;DHT22;5030;51.532;6.766;2023-04-03T06:21:21;0.90;99.90
9980;DHT22;5030;51.532;6.766;2023-04-03T06:23:48;0.80;99.90
9980;DHT22;5030;51.532;6.766;2023-04-03T06:26:14;0.90;99.90
9980;DHT22;5030;51.532;6.766;2023-04-03T06:28:40;0.90;99.90
9980;DHT22;5030;51.532;6.766;2023-04-03T06:31:05;1.10;99.90
9980;DHT22;5030;51.532;6.766;2023-04-03T06:33:31;1.30;99.90
9980;DHT22;5030;51.532;6.766;2023-04-03T06:36:03;1.30;99.90
9980;DHT22;5030;51.532;6.766;2023-04-03T06:38:29;1.10;99.90
9980;DHT22;5030;51.532;6.766;2023-04-03T06:40:55;1.20;99.90
9980;DHT22;5030;51.532;6.766;2023-04-03T06:43:21;1.30;99.90
9980;DHT22;5030;51.532;6.766;2023-04-03T06:45:47;1.40;99.90
9980;DHT22;5030;51.532;6.766;2023-04-03T06:48:13;1.60;99.90
9980;DHT22;5030;51.532;6.766;2023-04-03T06:50:39;1.70;99.90
9980;DHT22;5030;51.532;6.766;2023-04-03T06:53:04;1.70;99.90
9980;DHT22;5030;51.532;6.766;2023-04-03T06:55:31;1.70;99.90
9980;DHT22;5030;51.532;6.766;2023-04-03T06:57:57;1.70;99.90
9980;DHT22;5030;51.532;6.766;2023-04-03T07:00:22;1.80;99.90
9980;DHT22;5030;51.532;6.766;2023-04-03T07:02:48;1.80;99.90
9980;DHT22;5030;51.532;6.766;2023-04-03T07:05:14;1.90;99.90
9980;DHT22;5030;51.532;6.766;2023-04-03T07:07:39;1.80;99.90
9980;DHT22;5030;51.532;6.766;2023-04-03T07:10:07;2.00;99.90
9980;DHT22;5030;51.532;6.766;2023-04-03T07:12:33;2.10;99.90
9980;DHT22;5030;51.532;6.766;2023-04-03T07:14:59;1.90;99.90
9980;DHT22;5030;51.532;6.766;2023-04-03T07:17:25;2.00;99.90
9980;DHT22;5030;51.532;6.766;2023-04-03T07:19:51;2.30;99.90
9980;DHT22;5030;51.532;6.766;2023-04-03T07:22:17;2.30;99.90
9980;DHT22;5030;51.532;6.766;2023-04-03T07:24:43;2.20;99.90
9980;DHT22;5030;51.532;6.766;2023-04-03T07:27:09;2.30;99.90
9980;DHT22;5030;51.532;6.766;2023-04-03T07:29:38;2.50;99.90
9980;DHT22;5030;51.532;6.766;2023-04-03T07:32:04;2.50;99.90
9980;DHT22;5030;51.532;6.766;2023-04-03T07:34:31;2.50;99.90
9980;DHT22;5030;51.532;6.766;2023-04-03T07:36:57;2.50;99.90
9980;DHT22;5030;51.532;6.766;2023-04-03T07:39:23;2.60;99.90
9980;DHT22;5030;51.532;6.766;2023-04-03T07:41:49;2.70;99.90
9980;DHT22;5030;51.532;6.766;2023-04-03T07:44:15;2.70;99.90
9980;DHT22;5030;51.532;6.766;2023-04-03T07:46:40;2.80;99.90
9980;DHT22;5030;51.532;6.766;2023-04-03T07:49:06;2.80;99.90
9980;DHT22;5030;51.532;6.766;2023-04-03T07:51:32;3.00;99.90
9980;DHT22;5030;51.532;6.766;2023-04-03T07:53:58;3.00;99.90
9980;DHT22;5030;51.532;6.766;2023-04-03T07:56:24;2.90;99.90
9980;DHT22;5030;51.532;6.766;2023-04-03T07:58:50;3.00;99.90
9980;DHT22;5030;51.532;6.766;2023-04-03T08:01:16;3.00;99.90
9980;DHT22;5030;51.532;6.766;2023-04-03T08:03:42;3.10;99.90
9980;DHT22;5030;51.532;6.766;2023-04-03T08:06:09;3.20;99.90
9980;DHT22;5030;51.532;6.766;2023-04-03T08:08:35;3.20;99.90
9980;DHT22;5030;51.532;6.766;2023-04-03T08:11:02;3.30;98.10
9980;DHT22;5030;51.532;6.766;2023-04-03T08:13:28;3.40;96.60
9980;DHT22;5030;51.532;6.766;2023-04-03T08:15:55;3.70;93.80
9980;DHT22;5030;51.532;6.766;2023-04-03T08:18:23;3.70;91.00
9980;DHT22;5030;51.532;6.766;2023-04-03T08:20:51;3.80;92.80
9980;DHT22;5030;51.532;6.766;2023-04-03T08:23:18;3.80;95.60
9980;DHT22;5030;51.532;6.766;2023-04-03T08:25:45;3.70;96.30
9980;DHT22;5030;51.532;6.766;2023-04-03T08:28:12;3.80;98.30
9980;DHT22;5030;51.532;6.766;2023-04-03T08:30:41;3.90;90.50
9980;DHT22;5030;51.532;6.766;2023-04-03T08:33:08;4.00;76.70
9980;DHT22;5030;51.532;6.766;2023-04-03T08:35:40;4.00;82.00
9980;DHT22;5030;51.532;6.766;2023-04-03T08:38:07;4.00;78.50
9980;DHT22;5030;51.532;6.766;2023-04-03T08:40:34;4.40;74.90
9980;DHT22;5030;51.532;6.766;2023-04-03T08:43:10;4.50;79.40
9980;DHT22;5030;51.532;6.766;2023-04-03T08:45:51;4.60;56.30
9980;DHT22;5030;51.532;6.766;2023-04-03T08:48:27;4.60;49.40
9980;DHT22;5030;51.532;6.766;2023-04-03T08:50:58;4.70;54.20
9980;DHT22;5030;51.532;6.766;2023-04-03T08:53:30;4.80;57.70
9980;DHT22;5030;51.532;6.766;2023-04-03T08:55:58;4.90;47.40
9980;DHT22;5030;51.532;6.766;2023-04-03T08:58:30;5.10;35.80
9980;DHT22;5030;51.532;6.766;2023-04-03T09:01:00;5.20;36.50
9980;DHT22;5030;51.532;6.766;2023-04-03T09:03:30;5.20;23.10
9980;DHT22;5030;51.532;6.766;2023-04-03T09:08:30;5.40;7.40
9980;DHT22;5030;51.532;6.766;2023-04-03T09:11:15;5.50;4.50
9980;DHT22;5030;51.532;6.766;2023-04-03T09:14:07;5.50;13.40
9980;DHT22;5030;51.532;6.766;2023-04-03T09:16:49;5.80;2.60
9980;DHT22;5030;51.532;6.766;2023-04-03T09:22:24;6.20;6.10
9980;DHT22;5030;51.532;6.766;2023-04-03T09:27:25;6.20;1.00
9980;DHT22;5030;51.532;6.766;2023-04-03T09:29:54;6.20;1.00
9980;DHT22;5030;51.532;6.766;2023-04-03T09:32:41;6.40;1.00
9980;DHT22;5030;51.532;6.766;2023-04-03T09:37:44;7.00;1.00
9980;DHT22;5030;51.532;6.766;2023-04-03T09:42:59;6.90;1.00
9980;DHT22;5030;51.532;6.766;2023-04-03T09:45:34;7.00;1.00
9980;DHT22;5030;51.532;6.766;2023-04-03T09:51:00;7.00;1.00
9980;DHT22;5030;51.532;6.766;2023-04-03T09:53:43;7.00;1.00
9980;DHT22;5030;51.532;6.766;2023-04-03T09:58:43;7.30;1.00
9980;DHT22;5030;51.532;6.766;2023-04-03T10:04:22;7.50;1.00
9980;DHT22;5030;51.532;6.766;2023-04-03T10:06:51;7.40;1.00
9980;DHT22;5030;51.532;6.766;2023-04-03T10:09:26;7.60;1.00
9980;DHT22;5030;51.532;6.766;2023-04-03T10:12:10;7.80;1.00
9980;DHT22;5030;51.532;6.766;2023-04-03T10:14:54;7.80;1.00
9980;DHT22;5030;51.532;6.766;2023-04-03T10:20:40;7.70;1.00
9980;DHT22;5030;51.532;6.766;2023-04-03T10:28:20;8.20;1.00
9980;DHT22;5030;51.532;6.766;2023-04-03T10:30:59;8.10;1.00
9980;DHT22;5030;51.532;6.766;2023-04-03T10:37:10;8.70;1.00
9980;DHT22;5030;51.532;6.766;2023-04-03T10:42:09;8.80;1.00
9980;DHT22;5030;51.532;6.766;2023-04-03T10:47:23;8.60;1.00
9980;DHT22;5030;51.532;6.766;2023-04-03T10:49:55;8.50;1.00
9980;DHT22;5030;51.532;6.766;2023-04-03T10:57:43;8.70;1.00
9980;DHT22;5030;51.532;6.766;2023-04-03T11:00:22;8.60;1.00
9980;DHT22;5030;51.532;6.766;2023-04-03T11:03:03;8.60;1.00
9980;DHT22;5030;51.532;6.766;2023-04-03T11:05:44;8.70;1.00
9980;DHT22;5030;51.532;6.766;2023-04-03T11:10:54;8.60;1.00
9980;DHT22;5030;51.532;6.766;2023-04-03T11:13:33;8.60;1.00
9980;DHT22;5030;51.532;6.766;2023-04-03T11:16:02;8.50;1.00
9980;DHT22;5030;51.532;6.766;2023-04-03T11:18:49;8.60;1.00
9980;DHT22;5030;51.532;6.766;2023-04-03T11:21:22;8.80;1.00
9980;DHT22;5030;51.532;6.766;2023-04-03T11:23:51;8.80;1.00
9980;DHT22;5030;51.532;6.766;2023-04-03T11:26:26;9.00;1.00
9980;DHT22;5030;51.532;6.766;2023-04-03T11:28:59;8.90;1.00
9980;DHT22;5030;51.532;6.766;2023-04-03T11:31:39;8.90;1.00
9980;DHT22;5030;51.532;6.766;2023-04-03T11:36:54;8.70;1.00
9980;DHT22;5030;51.532;6.766;2023-04-03T11:39:35;8.80;1.00
9980;DHT22;5030;51.532;6.766;2023-04-03T11:42:37;8.90;1.00
9980;DHT22;5030;51.532;6.766;2023-04-03T11:45:31;8.90;1.00
9980;DHT22;5030;51.532;6.766;2023-04-03T11:48:09;9.00;1.00
9980;DHT22;5030;51.532;6.766;2023-04-03T11:50:49;9.10;1.00
9980;DHT22;5030;51.532;6.766;2023-04-03T11:55:53;9.00;1.00
9980;DHT22;5030;51.532;6.766;2023-04-03T11:58:24;9.10;1.00
9980;DHT22;5030;51.532;6.766;2023-04-03T12:00:58;9.30;1.00
9980;DHT22;5030;51.532;6.766;2023-04-03T12:08:55;9.50;1.00
9980;DHT22;5030;51.532;6.766;2023-04-03T12:19:29;9.90;1.00
9980;DHT22;5030;51.532;6.766;2023-04-03T12:24:30;10.20;1.00
9980;DHT22;5030;51.532;6.766;2023-04-03T12:29:40;10.10;1.00
9980;DHT22;5030;51.532;6.766;2023-04-03T12:35:34;10.40;1.00
9980;DHT22;5030;51.532;6.766;2023-04-03T12:44:20;11.40;1.00
9980;DHT22;5030;51.532;6.766;2023-04-03T12:46:51;11.50;1.00
9980;DHT22;5030;51.532;6.766;2023-04-03T12:49:33;11.30;1.00
9980;DHT22;5030;51.532;6.766;2023-04-03T12:52:04;11.50;1.00
9980;DHT22;5030;51.532;6.766;2023-04-03T12:54:38;11.60;1.00
9980;DHT22;5030;51.532;6.766;2023-04-03T12:57:15;11.60;1.00
9980;DHT22;5030;51.532;6.766;2023-04-03T12:59:42;11.50;1.00
9980;DHT22;5030;51.532;6.766;2023-04-03T13:02:32;11.60;1.00
9980;DHT22;5030;51.532;6.766;2023-04-03T13:05:07;11.60;1.00
9980;DHT22;5030;51.532;6.766;2023-04-03T13:07:35;11.60;1.00
9980;DHT22;5030;51.532;6.766;2023-04-03T13:12:34;11.90;1.00
9980;DHT22;5030;51.532;6.766;2023-04-03T13:15:12;12.00;1.00
9980;DHT22;5030;51.532;6.766;2023-04-03T13:17:40;12.30;1.00
9980;DHT22;5030;51.532;6.766;2023-04-03T13:20:31;12.60;1.00
9980;DHT22;5030;51.532;6.766;2023-04-03T13:23:05;13.00;1.00
9980;DHT22;5030;51.532;6.766;2023-04-03T13:25:35;13.30;1.00
9980;DHT22;5030;51.532;6.766;2023-04-03T13:28:04;13.30;1.00
9980;DHT22;5030;51.532;6.766;2023-04-03T13:30:32;13.00;1.00
9980;DHT22;5030;51.532;6.766;2023-04-03T13:33:03;12.70;1.00
9980;DHT22;5030;51.532;6.766;2023-04-03T13:35:37;12.80;1.00
9980;DHT22;5030;51.532;6.766;2023-04-03T13:38:25;12.60;1.00
9980;DHT22;5030;51.532;6.766;2023-04-03T13:40:57;12.60;1.00
9980;DHT22;5030;51.532;6.766;2023-04-03T13:43:28;12.20;1.00
9980;DHT22;5030;51.532;6.766;2023-04-03T13:45:59;12.70;1.00
9980;DHT22;5030;51.532;6.766;2023-04-03T13:48:26;12.90;1.00
9980;DHT22;5030;51.532;6.766;2023-04-03T13:51:05;13.20;1.00
9980;DHT22;5030;51.532;6.766;2023-04-03T13:53:33;12.90;1.00
9980;DHT22;5030;51.532;6.766;2023-04-03T13:58:30;13.00;1.00
9980;DHT22;5030;51.532;6.766;2023-04-03T14:01:14;12.90;1.00
9980;DHT22;5030;51.532;6.766;2023-04-03T14:04:09;12.60;1.00
9980;DHT22;5030;51.532;6.766;2023-04-03T14:06:36;12.90;1.00
9980;DHT22;5030;51.532;6.766;2023-04-03T14:09:02;12.90;1.00
9980;DHT22;5030;51.532;6.766;2023-04-03T14:11:30;13.00;1.00
9980;DHT22;5030;51.532;6.766;2023-04-03T14:13:58;13.00;1.00
9980;DHT22;5030;51.532;6.766;2023-04-03T14:16:28;13.10;1.00
9980;DHT22;5030;51.532;6.766;2023-04-03T14:18:55;12.90;1.00
9980;DHT22;5030;51.532;6.766;2023-04-03T14:21:21;12.60;1.00
9980;DHT22;5030;51.532;6.766;2023-04-03T14:23:47;13.10;1.00
9980;DHT22;5030;51.532;6.766;2023-04-03T14:26:18;12.90;1.00
9980;DHT22;5030;51.532;6.766;2023-04-03T14:28:47;12.80;1.00
9980;DHT22;5030;51.532;6.766;2023-04-03T14:31:13;13.00;1.00
9980;DHT22;5030;51.532;6.766;2023-04-03T14:33:40;13.10;1.00
9980;DHT22;5030;51.532;6.766;2023-04-03T14:36:17;13.00;1.00
9980;DHT22;5030;51.532;6.766;2023-04-03T14:38:45;13.20;1.00
9980;DHT22;5030;51.532;6.766;2023-04-03T14:41:13;13.10;1.00
9980;DHT22;5030;51.532;6.766;2023-04-03T14:43:39;13.00;1.00
9980;DHT22;5030;51.532;6.766;2023-04-03T14:46:05;13.10;1.00
9980;DHT22;5030;51.532;6.766;2023-04-03T14:48:35;12.90;1.00
9980;DHT22;5030;51.532;6.766;2023-04-03T14:51:00;13.10;1.00
9980;DHT22;5030;51.532;6.766;2023-04-03T14:53:26;13.30;1.00
9980;DHT22;5030;51.532;6.766;2023-04-03T14:55:54;12.80;1.00
9980;DHT22;5030;51.532;6.766;2023-04-03T14:58:20;13.00;1.00
9980;DHT22;5030;51.532;6.766;2023-04-03T15:00:47;13.40;1.00
9980;DHT22;5030;51.532;6.766;2023-04-03T15:03:14;13.60;1.00
9980;DHT22;5030;51.532;6.766;2023-04-03T15:05:43;13.10;1.00
9980;DHT22;5030;51.532;6.766;2023-04-03T15:08:18;12.90;1.00
9980;DHT22;5030;51.532;6.766;2023-04-03T15:10:44;13.20;1.00
9980;DHT22;5030;51.532;6.766;2023-04-03T15:13:12;13.00;1.00
9980;DHT22;5030;51.532;6.766;2023-04-03T15:15:38;13.50;1.00
9980;DHT22;5030;51.532;6.766;2023-04-03T15:18:03;13.30;1.00
9980;DHT22;5030;51.532;6.766;2023-04-03T15:20:30;12.70;1.00
9980;DHT22;5030;51.532;6.766;2023-04-03T15:23:00;12.10;1.00
9980;DHT22;5030;51.532;6.766;2023-04-03T15:25:29;12.10;1.00
9980;DHT22;5030;51.532;6.766;2023-04-03T15:27:56;12.40;1.00
9980;DHT22;5030;51.532;6.766;2023-04-03T15:30:22;12.90;1.00
9980;DHT22;5030;51.532;6.766;2023-04-03T15:32:48;13.00;1.00
9980;DHT22;5030;51.532;6.766;2023-04-03T15:35:14;12.80;1.00
9980;DHT22;5030;51.532;6.766;2023-04-03T15:37:40;12.70;1.00
9980;DHT22;5030;51.532;6.766;2023-04-03T15:40:07;12.80;1.00
9980;DHT22;5030;51.532;6.766;2023-04-03T15:42:33;12.60;1.00
9980;DHT22;5030;51.532;6.766;2023-04-03T15:44:59;12.70;1.00
9980;DHT22;5030;51.532;6.766;2023-04-03T15:47:25;12.70;1.00
9980;DHT22;5030;51.532;6.766;2023-04-03T15:49:53;12.40;1.00
9980;DHT22;5030;51.532;6.766;2023-04-03T15:52:19;12.10;1.00
9980;DHT22;5030;51.532;6.766;2023-04-03T15:54:45;12.20;1.00
9980;DHT22;5030;51.532;6.766;2023-04-03T15:57:11;11.60;1.00
9980;DHT22;5030;51.532;6.766;2023-04-03T15:59:36;12.20;1.00
9980;DHT22;5030;51.532;6.766;2023-04-03T16:02:04;12.30;1.00
9980;DHT22;5030;51.532;6.766;2023-04-03T16:04:30;12.50;1.00
9980;DHT22;5030;51.532;6.766;2023-04-03T16:06:56;12.20;1.00
9980;DHT22;5030;51.532;6.766;2023-04-03T16:09:22;12.10;1.00
9980;DHT22;5030;51.532;6.766;2023-04-03T16:11:47;12.20;1.00
9980;DHT22;5030;51.532;6.766;2023-04-03T16:14:13;12.20;1.00
9980;DHT22;5030;51.532;6.766;2023-04-03T16:16:40;12.10;1.00
9980;DHT22;5030;51.532;6.766;2023-04-03T16:19:06;12.10;1.00
9980;DHT22;5030;51.532;6.766;2023-04-03T16:21:33;11.90;1.00
9980;DHT22;5030;51.532;6.766;2023-04-03T16:23:59;11.70;1.00
9980;DHT22;5030;51.532;6.766;2023-04-03T16:26:25;11.60;1.00
9980;DHT22;5030;51.532;6.766;2023-04-03T16:28:52;11.70;1.00
9980;DHT22;5030;51.532;6.766;2023-04-03T16:31:17;11.90;1.00
9980;DHT22;5030;51.532;6.766;2023-04-03T16:33:43;11.30;1.00
9980;DHT22;5030;51.532;6.766;2023-04-03T16:36:09;11.00;1.00
9980;DHT22;5030;51.532;6.766;2023-04-03T16:38:35;11.00;1.00
9980;DHT22;5030;51.532;6.766;2023-04-03T16:41:01;11.30;1.00
9980;DHT22;5030;51.532;6.766;2023-04-03T16:43:32;11.50;1.00
9980;DHT22;5030;51.532;6.766;2023-04-03T16:45:59;11.10;1.00
9980;DHT22;5030;51.532;6.766;2023-04-03T16:48:27;11.00;1.00
9980;DHT22;5030;51.532;6.766;2023-04-03T16:50:53;10.90;1.00
9980;DHT22;5030;51.532;6.766;2023-04-03T16:53:23;10.90;1.00
9980;DHT22;5030;51.532;6.766;2023-04-03T16:55:49;10.50;1.00
9980;DHT22;5030;51.532;6.766;2023-04-03T16:58:16;10.60;1.00
9980;DHT22;5030;51.532;6.766;2023-04-03T17:00:42;10.80;1.00
9980;DHT22;5030;51.532;6.766;2023-04-03T17:03:08;11.20;1.00
9980;DHT22;5030;51.532;6.766;2023-04-03T17:05:34;10.90;1.00
9980;DHT22;5030;51.532;6.766;2023-04-03T17:08:00;11.00;1.00
9980;DHT22;5030;51.532;6.766;2023-04-03T17:10:27;11.00;1.00
9980;DHT22;5030;51.532;6.766;2023-04-03T17:12:53;10.80;1.00
9980;DHT22;5030;51.532;6.766;2023-04-03T17:15:19;10.30;1.00
9980;DHT22;5030;51.532;6.766;2023-04-03T17:17:46;9.70;1.00
9980;DHT22;5030;51.532;6.766;2023-04-03T17:20:13;9.20;1.00
9980;DHT22;5030;51.532;6.766;2023-04-03T17:22:39;9.10;1.00
9980;DHT22;5030;51.532;6.766;2023-04-03T17:25:06;8.70;1.00
9980;DHT22;5030;51.532;6.766;2023-04-03T17:27:32;8.20;1.00
9980;DHT22;5030;51.532;6.766;2023-04-03T17:29:58;8.10;1.00
9980;DHT22;5030;51.532;6.766;2023-04-03T17:32:24;8.10;1.00
9980;DHT22;5030;51.532;6.766;2023-04-03T17:34:51;8.10;1.00
9980;DHT22;5030;51.532;6.766;2023-04-03T17:37:17;7.90;1.00
9980;DHT22;5030;51.532;6.766;2023-04-03T17:39:43;7.90;1.00
9980;DHT22;5030;51.532;6.766;2023-04-03T17:42:11;7.80;1.00
9980;DHT22;5030;51.532;6.766;2023-04-03T17:44:37;7.70;1.00
9980;DHT22;5030;51.532;6.766;2023-04-03T17:47:04;7.60;1.00
9980;DHT22;5030;51.532;6.766;2023-04-03T17:49:30;7.60;1.00
9980;DHT22;5030;51.532;6.766;2023-04-03T17:51:57;7.40;1.00
9980;DHT22;5030;51.532;6.766;2023-04-03T17:54:23;7.20;1.00
9980;DHT22;5030;51.532;6.766;2023-04-03T17:56:49;7.00;1.00
9980;DHT22;5030;51.532;6.766;2023-04-03T17:59:15;6.90;1.00